Time;durP1;ratioP1;P1;durP2;ratioP2;P2;SDS_P1;SDS_P2;PMS_P1;PMS_P2;Temp;Humidity;BMP_temperature;BMP_pressure;BME280_temperature;BME280_humidity;BME280_pressure;Samples;Min_cycle;Max_cycle;Signal;HPM_P1;HPM_P2
2022/01/22 00:01:43;;;;;;;;;;;;;;;;;;5056067;28;20081;-69
2022/01/22 00:04:08;;;;;;;;;;;;;;;;;;5055127;28;19993;-69
2022/01/22 00:06:33;;;;;;;;;;;;;;;;;;5056411;28;19920;-69
2022/01/22 00:08:58;;;;;;;;;;;;;;;;;;5055776;28;19921;-69
2022/01/22 00:11:28;;;;;;;;;;;;;;;;;;5055423;28;19978;-69
2022/01/22 00:16:38;;;;;;;;;;;;;;;;;;5045024;28;19928;-70
2022/01/22 00:19:08;;;;;;;;;;;;;;;;;;5052973;28;20166;-69
2022/01/22 00:21:33;;;;;;;;;;;;;;;;;;5055320;28;19923;-69
2022/01/22 00:24:01;;;;;;;;;;;;;;;;;;5055596;28;19920;-69
2022/01/22 00:26:26;;;;;;;;;;;;;;;;;;5056185;28;20422;-69
2022/01/22 00:28:52;;;;;;;;;;;;;;;;;;5054133;28;19995;-69
2022/01/22 00:31:17;;;;;;;;;;;;;;;;;;5054407;28;19943;-69
2022/01/22 00:33:42;;;;;;;;;;;;;;;;;;5055537;28;20229;-69
2022/01/22 00:36:07;;;;;;;;;;;;;;;;;;5055353;28;20154;-69
2022/01/22 00:38:32;;;;;;;;;;;;;;;;;;5055386;28;19920;-69
2022/01/22 00:40:57;;;;;;;;;;;;;;;;;;5056157;28;19913;-69
2022/01/22 00:43:22;;;;;;;;;;;;;;;;;;5055031;28;20300;-69
2022/01/22 00:45:48;;;;;;;;;;;;;;;;;;5055351;28;20123;-69
2022/01/22 00:48:13;;;;;;;;;;;;;;;;;;5055243;28;19938;-69
2022/01/22 00:50:38;;;;;;;;;;;;;;;;;;5055273;28;20003;-69
2022/01/22 00:53:03;;;;;;;;;;;;;;;;;;5055537;28;20380;-69
2022/01/22 00:55:29;;;;;;;;;;;;;;;;;;5055590;28;19916;-69
2022/01/22 00:57:54;;;;;;;;;;;;;;;;;;5055000;28;19928;-69
2022/01/22 01:00:20;;;;;;;;;;;;;;;;;;5054942;28;19924;-69
2022/01/22 01:02:45;;;;;;;;;;;;;;;;;;5055557;28;20215;-69
2022/01/22 01:05:10;;;;;;;;;;;;;;;;;;5055424;28;19919;-69
2022/01/22 01:07:36;;;;;;;;;;;;;;;;;;5053556;28;19920;-69
2022/01/22 01:10:01;;;;;;;;;;;;;;;;;;5054858;28;20051;-69
2022/01/22 01:12:26;;;;;;;;;;;;;;;;;;5057367;28;20202;-69
2022/01/22 01:15:09;;;;;;;;;;;;;;;;;;5056765;28;20575;-67
2022/01/22 01:17:58;;;;;;;;;;;;;;;;;;5057017;28;19916;-67
2022/01/22 01:34:11;;;;;;;;;;;;;;;;;;5058545;28;20291;-69
2022/01/22 01:36:36;;;;;;;;;;;;;;;;;;5060337;28;19999;-69
2022/01/22 01:39:03;;;;;;;;;;;;;;;;;;5060652;28;20050;-69
2022/01/22 01:41:41;;;;;;;;;;;;;;;;;;5054417;28;19917;-69
2022/01/22 01:44:06;;;;;;;;;;;;;;;;;;5061061;28;19932;-70
2022/01/22 01:46:33;;;;;;;;;;;;;;;;;;5059742;28;19913;-69
2022/01/22 01:48:58;;;;;;;;;;;;;;;;;;5060145;28;20448;-70
2022/01/22 01:51:27;;;;;;;;;;;;;;;;;;5060426;28;19920;-69
2022/01/22 01:54:00;;;;;;;;;;;;;;;;;;5060583;28;20096;-69
2022/01/22 01:59:09;;;;;;;;;;;;;;;;;;5053952;28;19976;-69
2022/01/22 02:01:34;;;;;;;;;;;;;;;;;;5059264;28;19913;-67
2022/01/22 02:03:59;;;;;;;;;;;;;;;;;;5072569;22;20253;-71
2022/01/22 02:06:24;;;;;;;;;;;;;;;;;;5080443;28;19950;-71
2022/01/22 02:08:49;;;;;;;;;;;;;;;;;;5079278;28;19972;-71
2022/01/22 02:11:17;;;;;;;;;;;;;;;;;;5078812;28;19958;-71
2022/01/22 02:24:19;;;;;;;;;;;;;;;;;;5076891;28;19923;-70
2022/01/22 02:26:45;;;;;;;;;;;;;;;;;;5080554;28;19908;-70
2022/01/22 02:29:10;;;;;;;;;;;;;;;;;;5075719;28;19927;-70
2022/01/22 02:31:42;;;;;;;;;;;;;;;;;;5079615;28;19912;-70
2022/01/22 02:37:01;;;;;;;;;;;;;;;;;;5073688;28;20133;-69
2022/01/22 02:39:32;;;;;;;;;;;;;;;;;;5075301;28;19976;-70
2022/01/22 02:41:57;;;;;;;;;;;;;;;;;;5072146;28;20367;-70
2022/01/22 02:44:42;;;;;;;;;;;;;;;;;;5069886;28;20668;-70
2022/01/22 02:47:07;;;;;;;;;;;;;;;;;;5069780;28;20383;-70
2022/01/22 02:49:32;;;;;;;;;;;;;;;;;;5076826;28;19999;-70
2022/01/22 02:51:58;;;;;;;;;;;;;;;;;;5079178;28;19954;-69
2022/01/22 02:54:23;;;;;;;;;;;;;;;;;;5071551;28;19923;-70
2022/01/22 02:56:48;;;;;;;;;;;;;;;;;;5071239;28;19916;-69
2022/01/22 02:59:20;;;;;;;;;;;;;;;;;;5066556;28;20175;-70
2022/01/22 03:01:45;;;;;;;;;;;;;;;;;;5075301;28;19912;-70
2022/01/22 03:04:10;;;;;;;;;;;;;;;;;;5065485;28;20431;-69
2022/01/22 03:06:35;;;;;;;;;;;;;;;;;;5064334;28;20100;-70
2022/01/22 03:09:00;;;;;;;;;;;;;;;;;;5064038;28;19996;-70
2022/01/22 03:11:30;;;;;;;;;;;;;;;;;;5058387;28;19967;-70
2022/01/22 03:16:51;;;;;;;;;;;;;;;;;;5070916;28;19939;-70
2022/01/22 03:19:33;;;;;;;;;;;;;;;;;;5058744;28;20323;-70
2022/01/22 03:22:13;;;;;;;;;;;;;;;;;;5058921;28;19912;-70
2022/01/22 03:27:24;;;;;;;;;;;;;;;;;;5059845;28;19919;-70
2022/01/22 03:29:50;;;;;;;;;;;;;;;;;;5058952;28;19923;-70
2022/01/22 03:32:16;;;;;;;;;;;;;;;;;;5058965;28;19916;-70
2022/01/22 03:34:53;;;;;;;;;;;;;;;;;;5058839;28;20151;-70
2022/01/22 03:37:18;;;;;;;;;;;;;;;;;;5058826;28;19912;-70
2022/01/22 03:39:43;;;;;;;;;;;;;;;;;;5058013;28;20285;-70
2022/01/22 03:42:08;;;;;;;;;;;;;;;;;;5059224;28;19995;-70
2022/01/22 03:44:33;;;;;;;;;;;;;;;;;;5059122;28;20026;-71
2022/01/22 03:46:58;;;;;;;;;;;;;;;;;;5058973;28;19912;-70
2022/01/22 03:49:23;;;;;;;;;;;;;;;;;;5057201;28;19970;-70
2022/01/22 03:51:48;;;;;;;;;;;;;;;;;;5059362;28;20252;-69
2022/01/22 03:54:14;;;;;;;;;;;;;;;;;;5059442;28;19948;-69
2022/01/22 03:56:41;;;;;;;;;;;;;;;;;;5060256;28;19923;-70
2022/01/22 03:59:06;;;;;;;;;;;;;;;;;;5059813;28;19916;-69
2022/01/22 04:04:17;;;;;;;;;;;;;;;;;;5058861;28;19924;-70
2022/01/22 04:09:13;;;;;;;;;;;;;;;;;;5059748;28;19912;-69
2022/01/22 04:11:41;;;;;;;;;;;;;;;;;;5060125;28;19919;-70
2022/01/22 04:14:13;;;;;;;;;;;;;;;;;;5059337;28;20396;-69
2022/01/22 04:16:45;;;;;;;;;;;;;;;;;;5041756;28;19932;-70
2022/01/22 04:24:52;;;;;;;;;;;;;;;;;;5066418;28;20537;-70
2022/01/22 04:27:22;;;;;;;;;;;;;;;;;;5050671;28;19912;-69
2022/01/22 04:29:47;;;;;;;;;;;;;;;;;;5059146;28;19912;-70
2022/01/22 04:32:12;;;;;;;;;;;;;;;;;;5059771;28;20154;-70
2022/01/22 04:34:38;;;;;;;;;;;;;;;;;;5059242;28;20160;-69
2022/01/22 04:37:03;;;;;;;;;;;;;;;;;;5059114;28;20156;-70
2022/01/22 04:39:28;;;;;;;;;;;;;;;;;;5064038;28;19912;-70
2022/01/22 04:41:55;;;;;;;;;;;;;;;;;;5064025;28;20323;-70
2022/01/22 04:44:23;;;;;;;;;;;;;;;;;;5059169;28;20025;-69
2022/01/22 04:47:00;;;;;;;;;;;;;;;;;;5059537;28;19927;-69
2022/01/22 04:57:18;;;;;;;;;;;;;;;;;;5059755;28;19986;-69
2022/01/22 04:59:43;;;;;;;;;;;;;;;;;;5059576;28;20517;-70
2022/01/22 05:02:08;;;;;;;;;;;;;;;;;;5059866;28;20346;-70
2022/01/22 05:04:33;;;;;;;;;;;;;;;;;;5055228;28;20858;-70
2022/01/22 05:06:58;;;;;;;;;;;;;;;;;;5061810;28;19913;-70
2022/01/22 05:09:23;;;;;;;;;;;;;;;;;;5063600;28;20003;-69
2022/01/22 05:11:48;;;;;;;;;;;;;;;;;;5063517;28;19909;-70
2022/01/22 05:14:14;;;;;;;;;;;;;;;;;;5062970;28;20284;-70
2022/01/22 05:16:39;;;;;;;;;;;;;;;;;;5063666;28;19916;-69
2022/01/22 05:19:20;;;;;;;;;;;;;;;;;;5063658;28;20011;-70
2022/01/22 05:21:47;;;;;;;;;;;;;;;;;;5063158;28;19924;-70
2022/01/22 05:24:17;;;;;;;;;;;;;;;;;;5063262;28;20167;-69
2022/01/22 05:27:00;;;;;;;;;;;;;;;;;;5068429;28;19970;-69
2022/01/22 05:37:13;;;;;;;;;;;;;;;;;;5066999;28;19946;-70
2022/01/22 05:39:38;;;;;;;;;;;;;;;;;;5064167;28;20095;-70
2022/01/22 05:42:03;;;;;;;;;;;;;;;;;;5070103;28;19919;-70
2022/01/22 05:44:30;;;;;;;;;;;;;;;;;;5072249;28;19913;-69
2022/01/22 05:46:58;;;;;;;;;;;;;;;;;;5064533;28;19920;-70
2022/01/22 05:49:26;;;;;;;;;;;;;;;;;;5070376;28;20492;-70
2022/01/22 05:51:53;;;;;;;;;;;;;;;;;;5066185;28;19936;-70
2022/01/22 05:54:46;;;;;;;;;;;;;;;;;;5065588;28;20158;-70
2022/01/22 05:59:48;;;;;;;;;;;;;;;;;;5059996;28;19967;-69
2022/01/22 06:02:13;;;;;;;;;;;;;;;;;;5070973;28;20496;-69
2022/01/22 06:04:38;;;;;;;;;;;;;;;;;;5063485;28;20242;-69
2022/01/22 06:07:03;;;;;;;;;;;;;;;;;;5062675;28;19913;-69
2022/01/22 06:09:28;;;;;;;;;;;;;;;;;;5062204;28;20449;-69
2022/01/22 06:14:21;;;;;;;;;;;;;;;;;;5070318;28;19916;-69
2022/01/22 06:16:46;;;;;;;;;;;;;;;;;;5062932;28;20153;-69
2022/01/22 06:19:12;;;;;;;;;;;;;;;;;;5070022;28;19995;-69
2022/01/22 06:21:37;;;;;;;;;;;;;;;;;;5063244;28;19912;-70
2022/01/22 06:24:02;;;;;;;;;;;;;;;;;;5067692;28;20280;-70
2022/01/22 06:26:27;;;;;;;;;;;;;;;;;;5075590;28;20380;-71
2022/01/22 06:28:52;;;;;;;;;;;;;;;;;;5062716;28;19939;-71
2022/01/22 06:31:17;;;;;;;;;;;;;;;;;;5057029;28;19909;-71
2022/01/22 06:33:42;;;;;;;;;;;;;;;;;;5060187;28;20342;-71
2022/01/22 06:36:07;;;;;;;;;;;;;;;;;;5062788;28;19939;-70
2022/01/22 06:38:33;;;;;;;;;;;;;;;;;;5062316;28;19923;-71
2022/01/22 06:43:42;;;;;;;;;;;;;;;;;;5061397;28;20176;-71
2022/01/22 06:46:07;;;;;;;;;;;;;;;;;;5062520;28;19909;-71
2022/01/22 06:48:32;;;;;;;;;;;;;;;;;;5061863;28;19913;-71
2022/01/22 06:50:59;;;;;;;;;;;;;;;;;;5062494;28;19908;-69
2022/01/22 06:53:24;;;;;;;;;;;;;;;;;;5061977;28;19909;-70
2022/01/22 06:55:57;;;;;;;;;;;;;;;;;;5061784;28;19920;-71
2022/01/22 06:58:22;;;;;;;;;;;;;;;;;;5061645;28;20124;-71
2022/01/22 07:00:47;;;;;;;;;;;;;;;;;;5061476;28;20392;-71
2022/01/22 07:03:12;;;;;;;;;;;;;;;;;;5043491;28;19909;-71
2022/01/22 07:05:37;;;;;;;;;;;;;;;;;;5061875;28;20077;-71
2022/01/22 07:08:03;;;;;;;;;;;;;;;;;;5062213;28;20517;-71
2022/01/22 07:10:28;;;;;;;;;;;;;;;;;;5062597;28;20101;-71
2022/01/22 07:12:53;;;;;;;;;;;;;;;;;;5064464;28;20368;-71
2022/01/22 07:15:19;;;;;;;;;;;;;;;;;;5060908;28;20396;-71
2022/01/22 07:17:45;;;;;;;;;;;;;;;;;;5053027;28;19939;-71
2022/01/22 07:20:14;;;;;;;;;;;;;;;;;;5060668;28;20312;-72
2022/01/22 07:25:05;;;;;;;;;;;;;;;;;;5060329;28;20389;-71
2022/01/22 07:27:30;;;;;;;;;;;;;;;;;;5068792;28;20440;-71
2022/01/22 07:29:55;;;;;;;;;;;;;;;;;;5059187;28;19999;-71
2022/01/22 07:32:31;;;;;;;;;;;;;;;;;;5059428;28;20054;-71
2022/01/22 07:34:56;;;;;;;;;;;;;;;;;;5059408;28;20034;-72
2022/01/22 07:37:21;;;;;;;;;;;;;;;;;;5059811;28;19986;-71
2022/01/22 07:39:46;;;;;;;;;;;;;;;;;;5060484;28;19942;-71
2022/01/22 07:42:11;;;;;;;;;;;;;;;;;;5052093;28;19960;-71
2022/01/22 07:44:36;;;;;;;;;;;;;;;;;;5060097;28;19917;-71
2022/01/22 07:47:02;;;;;;;;;;;;;;;;;;5060124;28;19916;-71
2022/01/22 07:49:27;;;;;;;;;;;;;;;;;;5059524;28;20350;-71
2022/01/22 07:51:52;;;;;;;;;;;;;;;;;;5060375;28;20008;-71
2022/01/22 07:54:17;;;;;;;;;;;;;;;;;;5060581;28;19916;-71
2022/01/22 07:56:42;;;;;;;;;;;;;;;;;;5060366;28;19912;-71
2022/01/22 07:59:07;;;;;;;;;;;;;;;;;;5060135;28;20079;-71
2022/01/22 08:01:33;;;;;;;;;;;;;;;;;;5060741;28;20152;-71
2022/01/22 08:03:58;;;;;;;;;;;;;;;;;;5059491;28;19917;-71
2022/01/22 08:06:23;;;;;;;;;;;;;;;;;;5060510;28;20331;-71
2022/01/22 08:08:48;;;;;;;;;;;;;;;;;;5059620;28;20018;-71
2022/01/22 08:11:13;;;;;;;;;;;;;;;;;;5059811;28;19909;-71
2022/01/22 08:13:38;;;;;;;;;;;;;;;;;;5060024;28;19917;-71
2022/01/22 08:16:04;;;;;;;;;;;;;;;;;;5059931;28;19908;-71
2022/01/22 08:18:29;;;;;;;;;;;;;;;;;;5059624;28;19986;-71
2022/01/22 08:20:54;;;;;;;;;;;;;;;;;;5059189;28;19913;-71
2022/01/22 08:23:20;;;;;;;;;;;;;;;;;;5056893;28;19913;-71
2022/01/22 08:25:47;;;;;;;;;;;;;;;;;;5059387;28;20426;-71
2022/01/22 08:30:56;;;;;;;;;;;;;;;;;;5059123;28;19934;-71
2022/01/22 08:35:52;;;;;;;;;;;;;;;;;;5059831;28;19909;-72
2022/01/22 08:36:19;;;;;;;;;;;;;;;;;;5056801;28;19924;-71
2022/01/22 08:38:44;;;;;;;;;;;;;;;;;;5056186;28;20352;-72
2022/01/22 08:41:09;;;;;;;;;;;;;;;;;;5057999;28;20017;-72
2022/01/22 08:43:34;;;;;;;;;;;;;;;;;;5057961;28;19943;-72
2022/01/22 08:46:02;;;;;;;;;;;;;;;;;;5058154;28;19930;-72
2022/01/22 08:48:27;;;;;;;;;;;;;;;;;;5058011;28;19916;-71
2022/01/22 08:50:52;;;;;;;;;;;;;;;;;;5054095;28;19972;-72
2022/01/22 08:53:17;;;;;;;;;;;;;;;;;;5058123;28;19997;-72
2022/01/22 08:55:43;;;;;;;;;;;;;;;;;;5057334;28;20072;-72
2022/01/22 08:58:08;;;;;;;;;;;;;;;;;;5058938;28;19995;-72
2022/01/22 09:00:33;;;;;;;;;;;;;;;;;;5058768;28;19927;-72
2022/01/22 09:02:59;;;;;;;;;;;;;;;;;;5058524;28;20369;-72
2022/01/22 09:05:31;;;;;;;;;;;;;;;;;;5058635;28;19982;-72
2022/01/22 09:07:56;;;;;;;;;;;;;;;;;;5058822;28;19916;-72
2022/01/22 09:10:21;;;;;;;;;;;;;;;;;;5058152;28;19912;-72
2022/01/22 09:12:46;;;;;;;;;;;;;;;;;;5059475;28;20084;-72
2022/01/22 09:15:11;;;;;;;;;;;;;;;;;;5058597;28;20584;-72
2022/01/22 09:17:37;;;;;;;;;;;;;;;;;;5059132;28;20286;-71
2022/01/22 09:20:05;;;;;;;;;;;;;;;;;;5058769;28;20003;-72
2022/01/22 09:22:30;;;;;;;;;;;;;;;;;;5059132;28;19916;-72
2022/01/22 09:24:56;;;;;;;;;;;;;;;;;;5057948;28;19921;-71
2022/01/22 09:27:21;;;;;;;;;;;;;;;;;;5059070;28;19921;-71
2022/01/22 09:29:48;;;;;;;;;;;;;;;;;;5058806;28;20557;-72
2022/01/22 09:32:13;;;;;;;;;;;;;;;;;;5055798;28;20418;-71
2022/01/22 09:34:40;;;;;;;;;;;;;;;;;;5047132;28;20327;-71
2022/01/22 09:37:05;;;;;;;;;;;;;;;;;;5051762;28;19920;-71
2022/01/22 09:39:30;;;;;;;;;;;;;;;;;;5056352;28;19981;-72
2022/01/22 09:41:55;;;;;;;;;;;;;;;;;;5057159;28;20005;-72
2022/01/22 09:44:20;;;;;;;;;;;;;;;;;;5055552;28;19985;-71
2022/01/22 09:46:45;;;;;;;;;;;;;;;;;;5055955;28;19924;-72
2022/01/22 09:49:10;;;;;;;;;;;;;;;;;;5056800;28;20138;-72
2022/01/22 09:51:36;;;;;;;;;;;;;;;;;;5056210;28;20546;-71
2022/01/22 09:54:01;;;;;;;;;;;;;;;;;;5056039;28;19927;-72
2022/01/22 09:56:28;;;;;;;;;;;;;;;;;;5058250;28;19927;-71
2022/01/22 09:58:53;;;;;;;;;;;;;;;;;;5059836;28;20202;-71
2022/01/22 10:01:18;;;;;;;;;;;;;;;;;;5058795;28;19924;-71
2022/01/22 10:03:43;;;;;;;;;;;;;;;;;;5057587;28;20464;-71
2022/01/22 10:06:08;;;;;;;;;;;;;;;;;;5059045;28;20292;-71
2022/01/22 10:08:36;;;;;;;;;;;;;;;;;;5059663;28;19961;-71
2022/01/22 10:11:01;;;;;;;;;;;;;;;;;;5058996;28;20038;-71
2022/01/22 10:13:26;;;;;;;;;;;;;;;;;;5059210;28;20163;-71
2022/01/22 10:15:51;;;;;;;;;;;;;;;;;;5058393;28;19916;-70
2022/01/22 10:18:16;;;;;;;;;;;;;;;;;;5058901;28;20028;-70
2022/01/22 10:20:41;;;;;;;;;;;;;;;;;;5056830;28;19912;-70
2022/01/22 10:23:08;;;;;;;;;;;;;;;;;;5059556;28;19916;-71
2022/01/22 10:25:36;;;;;;;;;;;;;;;;;;5058317;28;19916;-70
2022/01/22 10:28:01;;;;;;;;;;;;;;;;;;5059551;28;19939;-70
2022/01/22 10:30:41;;;;;;;;;;;;;;;;;;5059707;28;19916;-70
2022/01/22 10:33:10;;;;;;;;;;;;;;;;;;5054234;28;20235;-70
2022/01/22 10:35:35;;;;;;;;;;;;;;;;;;5058021;28;20041;-70
2022/01/22 10:38:00;;;;;;;;;;;;;;;;;;5059036;28;20434;-70
2022/01/22 10:40:27;;;;;;;;;;;;;;;;;;5058758;28;19917;-71
2022/01/22 10:42:52;;;;;;;;;;;;;;;;;;5057782;28;20033;-71
2022/01/22 10:45:27;;;;;;;;;;;;;;;;;;5057240;28;20343;-71
2022/01/22 10:47:52;;;;;;;;;;;;;;;;;;5050765;28;19981;-71
2022/01/22 10:50:17;;;;;;;;;;;;;;;;;;5057419;28;19917;-71
2022/01/22 10:52:42;;;;;;;;;;;;;;;;;;5058241;28;20069;-71
2022/01/22 10:55:07;;;;;;;;;;;;;;;;;;5057171;28;19920;-70
2022/01/22 10:57:32;;;;;;;;;;;;;;;;;;5058154;28;20293;-71
2022/01/22 10:59:58;;;;;;;;;;;;;;;;;;5057706;28;19955;-70
2022/01/22 11:02:24;;;;;;;;;;;;;;;;;;5058267;28;19935;-71
2022/01/22 11:04:49;;;;;;;;;;;;;;;;;;5057121;28;20172;-71
2022/01/22 11:07:14;;;;;;;;;;;;;;;;;;5058443;28;20153;-71
2022/01/22 11:09:39;;;;;;;;;;;;;;;;;;5058218;28;20240;-71
2022/01/22 11:12:04;;;;;;;;;;;;;;;;;;5057484;28;19963;-71
2022/01/22 11:14:29;;;;;;;;;;;;;;;;;;5056843;28;19920;-71
2022/01/22 11:16:55;;;;;;;;;;;;;;;;;;5052562;28;20225;-71
2022/01/22 11:19:24;;;;;;;;;;;;;;;;;;5057381;28;20728;-71
2022/01/22 11:21:49;;;;;;;;;;;;;;;;;;5057322;28;19912;-71
2022/01/22 11:24:14;;;;;;;;;;;;;;;;;;5056688;28;20160;-71
2022/01/22 11:26:39;;;;;;;;;;;;;;;;;;5057359;28;19924;-71
2022/01/22 11:29:04;;;;;;;;;;;;;;;;;;5057880;28;19920;-72
2022/01/22 11:31:29;;;;;;;;;;;;;;;;;;5057649;28;20261;-71
2022/01/22 11:33:55;;;;;;;;;;;;;;;;;;5055730;28;19916;-72
2022/01/22 11:36:20;;;;;;;;;;;;;;;;;;5056729;28;19920;-71
2022/01/22 11:38:45;;;;;;;;;;;;;;;;;;5057583;28;19974;-71
2022/01/22 11:41:11;;;;;;;;;;;;;;;;;;5055117;28;19924;-70
2022/01/22 11:43:40;;;;;;;;;;;;;;;;;;5057181;28;19912;-71
2022/01/22 11:46:06;;;;;;;;;;;;;;;;;;5055465;28;19931;-71
2022/01/22 11:48:31;;;;;;;;;;;;;;;;;;5056819;28;20080;-70
2022/01/22 11:50:56;;;;;;;;;;;;;;;;;;5047505;28;19932;-70
2022/01/22 11:53:21;;;;;;;;;;;;;;;;;;5056504;28;19917;-70
2022/01/22 11:55:46;;;;;;;;;;;;;;;;;;5055979;28;20323;-71
2022/01/22 11:58:15;;;;;;;;;;;;;;;;;;5056504;28;20066;-71
2022/01/22 12:00:41;;;;;;;;;;;;;;;;;;5056005;28;19970;-71
2022/01/22 12:03:06;;;;;;;;;;;;;;;;;;5056875;28;19917;-71
2022/01/22 12:05:31;;;;;;;;;;;;;;;;;;5056008;28;20208;-71
2022/01/22 12:07:56;;;;;;;;;;;;;;;;;;5056336;28;20454;-71
2022/01/22 12:14:25;;;;;;;;;;;;;;;;;;5055845;28;20419;-71
2022/01/22 12:15:51;;;;;;;;;;;;;;;;;;5055407;28;19923;-70
2022/01/22 12:18:18;;;;;;;;;;;;;;;;;;5056911;28;20312;-71
2022/01/22 12:23:15;;;;;;;;;;;;;;;;;;5055739;28;19920;-71
2022/01/22 12:25:40;;;;;;;;;;;;;;;;;;5056751;28;20377;-71
2022/01/22 12:28:05;;;;;;;;;;;;;;;;;;5056432;28;19970;-71
2022/01/22 12:30:30;;;;;;;;;;;;;;;;;;5057414;28;19917;-71
2022/01/22 12:32:57;;;;;;;;;;;;;;;;;;5056573;28;19927;-71
2022/01/22 12:35:22;;;;;;;;;;;;;;;;;;5056284;28;19978;-70
2022/01/22 12:37:52;;;;;;;;;;;;;;;;;;5056392;28;19920;-71
2022/01/22 12:40:17;;;;;;;;;;;;;;;;;;5057094;28;20250;-70
2022/01/22 12:42:45;;;;;;;;;;;;;;;;;;5055791;28;20498;-70
2022/01/22 12:45:10;;;;;;;;;;;;;;;;;;5056348;28;19924;-71
2022/01/22 12:47:37;;;;;;;;;;;;;;;;;;5055703;28;19917;-71
2022/01/22 12:50:02;;;;;;;;;;;;;;;;;;5056222;28;19971;-71
2022/01/22 12:52:27;;;;;;;;;;;;;;;;;;5055259;28;20347;-70
2022/01/22 12:54:57;;;;;;;;;;;;;;;;;;5055774;28;19916;-70
2022/01/22 12:57:24;;;;;;;;;;;;;;;;;;5055547;28;20202;-70
2022/01/22 12:59:49;;;;;;;;;;;;;;;;;;5055843;28;20384;-70
2022/01/22 13:02:14;;;;;;;;;;;;;;;;;;5056368;28;19917;-70
2022/01/22 13:04:39;;;;;;;;;;;;;;;;;;5055743;28;20115;-70
2022/01/22 13:07:04;;;;;;;;;;;;;;;;;;5056010;28;20073;-70
2022/01/22 13:09:29;;;;;;;;;;;;;;;;;;5055201;28;19916;-71
2022/01/22 13:11:57;;;;;;;;;;;;;;;;;;5055830;28;19957;-70
2022/01/22 13:14:22;;;;;;;;;;;;;;;;;;5054594;28;20528;-70
2022/01/22 13:16:48;;;;;;;;;;;;;;;;;;5055914;28;19927;-70
2022/01/22 13:19:13;;;;;;;;;;;;;;;;;;5055291;28;19955;-70
2022/01/22 13:21:38;;;;;;;;;;;;;;;;;;5055600;28;19966;-71
2022/01/22 13:24:03;;;;;;;;;;;;;;;;;;5055091;28;20272;-71
2022/01/22 13:26:29;;;;;;;;;;;;;;;;;;5055515;28;19916;-70
2022/01/22 13:28:55;;;;;;;;;;;;;;;;;;5057090;28;20051;-70
2022/01/22 13:31:20;;;;;;;;;;;;;;;;;;5059338;28;19982;-70
2022/01/22 13:33:58;;;;;;;;;;;;;;;;;;5059742;28;20384;-70
2022/01/22 13:36:34;;;;;;;;;;;;;;;;;;5057515;28;19923;-70
2022/01/22 13:49:52;;;;;;;;;;;;;;;;;;5058599;28;20025;-70
2022/01/22 13:52:17;;;;;;;;;;;;;;;;;;5058404;28;20522;-71
2022/01/22 13:54:42;;;;;;;;;;;;;;;;;;5058481;28;19916;-70
2022/01/22 13:57:08;;;;;;;;;;;;;;;;;;5058767;28;20003;-70
2022/01/22 13:59:33;;;;;;;;;;;;;;;;;;5057808;28;20369;-70
2022/01/22 14:04:29;;;;;;;;;;;;;;;;;;5058117;28;20388;-70
2022/01/22 14:06:55;;;;;;;;;;;;;;;;;;5058995;28;20400;-68
2022/01/22 14:09:20;;;;;;;;;;;;;;;;;;5058223;28;19917;-68
2022/01/22 14:11:45;;;;;;;;;;;;;;;;;;5057614;28;19939;-70
2022/01/22 14:14:10;;;;;;;;;;;;;;;;;;5057959;28;19943;-71
2022/01/22 14:16:35;;;;;;;;;;;;;;;;;;5057606;28;19926;-71
2022/01/22 14:19:00;;;;;;;;;;;;;;;;;;5057265;28;19959;-71
2022/01/22 14:21:26;;;;;;;;;;;;;;;;;;5057303;28;20120;-71
2022/01/22 14:23:51;;;;;;;;;;;;;;;;;;5058014;28;19924;-71
2022/01/22 14:26:16;;;;;;;;;;;;;;;;;;5057676;28;19985;-71
2022/01/22 14:28:41;;;;;;;;;;;;;;;;;;5058639;28;19927;-71
2022/01/22 14:31:06;;;;;;;;;;;;;;;;;;5058411;28;19974;-71
2022/01/22 14:33:31;;;;;;;;;;;;;;;;;;5057611;28;19939;-69
2022/01/22 14:35:57;;;;;;;;;;;;;;;;;;5058224;28;19959;-69
2022/01/22 14:38:22;;;;;;;;;;;;;;;;;;5056800;28;19925;-69
2022/01/22 14:44:01;;;;;;;;;;;;;;;;;;5054637;28;19923;-68
2022/01/22 14:46:26;;;;;;;;;;;;;;;;;;5057478;28;19921;-69
2022/01/22 14:48:51;;;;;;;;;;;;;;;;;;5054367;28;19935;-68
2022/01/22 14:51:16;;;;;;;;;;;;;;;;;;5055210;28;20096;-68
2022/01/22 14:53:41;;;;;;;;;;;;;;;;;;5057264;28;20320;-69
2022/01/22 14:56:06;;;;;;;;;;;;;;;;;;5057565;28;19917;-68
2022/01/22 14:58:31;;;;;;;;;;;;;;;;;;5058112;28;19919;-69
2022/01/22 15:00:56;;;;;;;;;;;;;;;;;;5056386;28;20003;-69
2022/01/22 15:03:21;;;;;;;;;;;;;;;;;;5057917;28;19919;-69
2022/01/22 15:05:47;;;;;;;;;;;;;;;;;;5057854;28;19927;-69
2022/01/22 15:08:12;;;;;;;;;;;;;;;;;;5057990;28;19955;-69
2022/01/22 15:10:37;;;;;;;;;;;;;;;;;;5056296;28;19957;-69
2022/01/22 15:13:02;;;;;;;;;;;;;;;;;;5056979;28;19999;-69
2022/01/22 15:15:34;;;;;;;;;;;;;;;;;;5056639;28;19924;-69
2022/01/22 15:18:07;;;;;;;;;;;;;;;;;;5057313;28;20536;-69
2022/01/22 15:20:33;;;;;;;;;;;;;;;;;;5057634;28;20456;-69
2022/01/22 15:22:58;;;;;;;;;;;;;;;;;;5055506;28;19917;-69
2022/01/22 15:25:24;;;;;;;;;;;;;;;;;;5056920;28;20134;-69
2022/01/22 15:27:49;;;;;;;;;;;;;;;;;;5057835;28;20050;-69
2022/01/22 15:35:06;;;;;;;;;;;;;;;;;;5057007;28;19928;-69
2022/01/22 15:37:31;;;;;;;;;;;;;;;;;;5056152;28;19927;-69
2022/01/22 15:39:56;;;;;;;;;;;;;;;;;;5056454;28;19916;-69
2022/01/22 15:42:21;;;;;;;;;;;;;;;;;;5056888;28;20502;-69
2022/01/22 15:44:47;;;;;;;;;;;;;;;;;;5057089;28;20272;-69
2022/01/22 15:47:12;;;;;;;;;;;;;;;;;;5055313;28;20361;-69
2022/01/22 15:49:40;;;;;;;;;;;;;;;;;;5056676;28;20358;-69
2022/01/22 15:52:05;;;;;;;;;;;;;;;;;;5054806;28;19916;-69
2022/01/22 15:54:31;;;;;;;;;;;;;;;;;;5056118;28;19927;-69
2022/01/22 15:56:56;;;;;;;;;;;;;;;;;;5056549;28;19927;-69
2022/01/22 15:59:21;;;;;;;;;;;;;;;;;;5056104;28;20015;-71
2022/01/22 16:01:47;;;;;;;;;;;;;;;;;;5057124;28;20065;-72
2022/01/22 16:04:12;;;;;;;;;;;;;;;;;;5053639;28;19994;-69
2022/01/22 16:06:47;;;;;;;;;;;;;;;;;;5057089;28;19927;-69
2022/01/22 16:09:12;;;;;;;;;;;;;;;;;;5056360;28;20169;-69
2022/01/22 16:11:37;;;;;;;;;;;;;;;;;;5054904;28;20458;-69
2022/01/22 16:14:02;;;;;;;;;;;;;;;;;;5055090;28;20007;-69
2022/01/22 16:16:28;;;;;;;;;;;;;;;;;;5056644;28;20420;-69
2022/01/22 16:18:53;;;;;;;;;;;;;;;;;;5055939;28;19917;-69
2022/01/22 16:21:18;;;;;;;;;;;;;;;;;;5056784;28;20150;-71
2022/01/22 16:23:43;;;;;;;;;;;;;;;;;;5055418;28;19968;-71
2022/01/22 16:26:08;;;;;;;;;;;;;;;;;;5056128;28;19917;-71
2022/01/22 16:28:33;;;;;;;;;;;;;;;;;;5056426;28;19923;-69
2022/01/22 16:30:58;;;;;;;;;;;;;;;;;;5055518;28;20078;-71
2022/01/22 16:33:23;;;;;;;;;;;;;;;;;;5052346;28;20007;-71
2022/01/22 16:35:49;;;;;;;;;;;;;;;;;;5054715;28;19917;-71
2022/01/22 16:38:14;;;;;;;;;;;;;;;;;;5055659;28;20341;-71
2022/01/22 16:40:39;;;;;;;;;;;;;;;;;;5056229;28;20362;-71
2022/01/22 16:43:07;;;;;;;;;;;;;;;;;;5057504;28;20058;-71
2022/01/22 16:56:33;;;;;;;;;;;;;;;;;;5015005;28;19917;-71
2022/01/22 16:58:59;;;;;;;;;;;;;;;;;;5014757;28;19917;-71
2022/01/22 17:01:33;;;;;;;;;;;;;;;;;;5014223;28;20372;-71
2022/01/22 17:03:58;;;;;;;;;;;;;;;;;;5016191;28;20015;-71
2022/01/22 17:06:23;;;;;;;;;;;;;;;;;;5012042;28;20015;-71
2022/01/22 17:08:53;;;;;;;;;;;;;;;;;;5014002;28;20001;-71
2022/01/22 17:11:28;;;;;;;;;;;;;;;;;;5015016;28;19916;-71
2022/01/22 17:14:12;;;;;;;;;;;;;;;;;;5016796;28;19913;-71
2022/01/22 17:16:37;;;;;;;;;;;;;;;;;;5016051;28;19928;-71
2022/01/22 17:19:03;;;;;;;;;;;;;;;;;;5016289;28;19921;-71
2022/01/22 17:21:29;;;;;;;;;;;;;;;;;;5015403;28;19928;-71
2022/01/22 17:23:54;;;;;;;;;;;;;;;;;;5013664;28;19924;-71
2022/01/22 17:26:19;;;;;;;;;;;;;;;;;;5001761;28;19917;-71
2022/01/22 17:28:44;;;;;;;;;;;;;;;;;;5018609;28;19921;-71
2022/01/22 17:31:09;;;;;;;;;;;;;;;;;;5035668;28;19943;-71
2022/01/22 17:33:34;;;;;;;;;;;;;;;;;;5039415;28;19930;-71
2022/01/22 17:35:59;;;;;;;;;;;;;;;;;;5040331;28;20408;-71
2022/01/22 17:38:25;;;;;;;;;;;;;;;;;;5040339;28;19916;-71
2022/01/22 17:40:51;;;;;;;;;;;;;;;;;;5037008;28;20272;-71
2022/01/22 17:43:17;;;;;;;;;;;;;;;;;;5040712;28;19999;-71
2022/01/22 17:45:42;;;;;;;;;;;;;;;;;;5040015;28;20008;-71
2022/01/22 17:48:07;;;;;;;;;;;;;;;;;;5040193;28;20446;-71
2022/01/22 17:50:32;;;;;;;;;;;;;;;;;;5040334;28;19913;-71
2022/01/22 17:52:57;;;;;;;;;;;;;;;;;;5040071;28;20427;-71
2022/01/22 17:55:22;;;;;;;;;;;;;;;;;;5040969;28;19924;-71
2022/01/22 17:57:48;;;;;;;;;;;;;;;;;;5051339;28;19946;-71
2022/01/22 18:00:13;;;;;;;;;;;;;;;;;;5039705;28;20205;-71
2022/01/22 18:02:38;;;;;;;;;;;;;;;;;;5040236;28;20165;-71
2022/01/22 18:05:03;;;;;;;;;;;;;;;;;;5054822;28;19924;-71
2022/01/22 18:07:28;;;;;;;;;;;;;;;;;;5059993;28;20188;-71
2022/01/22 18:09:55;;;;;;;;;;;;;;;;;;5068865;28;20544;-71
2022/01/22 18:12:21;;;;;;;;;;;;;;;;;;5060474;28;19924;-71
2022/01/22 18:14:46;;;;;;;;;;;;;;;;;;5059405;28;19916;-71
2022/01/22 18:17:11;;;;;;;;;;;;;;;;;;5060033;28;20383;-71
2022/01/22 18:19:36;;;;;;;;;;;;;;;;;;5059500;28;20516;-71
2022/01/22 18:22:01;;;;;;;;;;;;;;;;;;5059868;28;20007;-71
2022/01/22 18:24:26;;;;;;;;;;;;;;;;;;5059835;28;19943;-71
2022/01/22 18:26:51;;;;;;;;;;;;;;;;;;5059541;28;19918;-71
2022/01/22 18:29:19;;;;;;;;;;;;;;;;;;5059483;28;20189;-71
2022/01/22 18:31:44;;;;;;;;;;;;;;;;;;5059718;28;19940;-71
2022/01/22 18:34:09;;;;;;;;;;;;;;;;;;5059615;28;20463;-71
2022/01/22 18:36:34;;;;;;;;;;;;;;;;;;5059758;28;20422;-71